Time;durP1;ratioP1;P1;durP2;ratioP2;P2;SDS_P1;SDS_P2;PMS_P1;PMS_P2;Temp;Humidity;BMP_temperature;BMP_pressure;BME280_temperature;BME280_humidity;BME280_pressure;Samples;Min_cycle;Max_cycle;Signal;HPM_P1;HPM_P2
2022/06/01 00:01:13;;;;;;;31.87;22.03;;;;;;;8.50;100.00;101213.44;5081865;28;20039;-84
2022/06/01 00:03:43;;;;;;;33.03;22.48;;;;;;;8.43;100.00;101210.66;5099856;28;20031;-84
2022/06/01 00:06:10;;;;;;;31.30;21.45;;;;;;;8.42;100.00;101203.56;5116081;28;20031;-84
2022/06/01 00:08:37;;;;;;;31.42;21.55;;;;;;;8.41;100.00;101214.59;5116237;28;20024;-83
2022/06/01 00:11:03;;;;;;;31.43;22.00;;;;;;;8.38;100.00;101204.97;5116371;28;20473;-84
2022/06/01 00:13:29;;;;;;;32.58;22.52;;;;;;;8.37;100.00;101219.56;5115747;28;20069;-83
2022/06/01 00:15:54;;;;;;;35.85;22.88;;;;;;;8.34;100.00;101205.56;5098541;28;20024;-83
2022/06/01 00:18:22;;;;;;;34.27;23.43;;;;;;;8.35;100.00;101212.66;5098346;28;20475;-83
2022/06/01 00:20:48;;;;;;;34.75;22.77;;;;;;;8.33;100.00;101215.56;5099727;28;20121;-83
2022/06/01 00:23:13;;;;;;;36.13;24.33;;;;;;;8.34;100.00;101210.97;5115222;28;20023;-83
2022/06/01 00:25:39;;;;;;;36.50;24.17;;;;;;;8.33;100.00;101209.31;5115700;28;20383;-83
2022/06/01 00:28:05;;;;;;;35.60;23.80;;;;;;;8.34;100.00;101219.06;5114212;28;20490;-83
2022/06/01 00:30:32;;;;;;;36.85;24.38;;;;;;;8.37;100.00;101214.16;5116879;28;20111;-83
2022/06/01 00:32:57;;;;;;;36.20;24.75;;;;;;;8.39;100.00;101213.94;5098721;28;20042;-83
2022/06/01 00:35:24;;;;;;;38.83;24.50;;;;;;;8.42;100.00;101216.28;5116734;27;20471;-83
2022/06/01 00:37:50;;;;;;;35.13;24.40;;;;;;;8.41;100.00;101214.59;5116688;28;20081;-83
2022/06/01 00:40:21;;;;;;;37.33;24.27;;;;;;;8.42;100.00;101219.78;5098602;28;20471;-83
2022/06/01 00:42:49;;;;;;;35.40;24.27;;;;;;;8.39;100.00;101213.94;5115256;28;20055;-83
2022/06/01 00:45:18;;;;;;;36.30;24.27;;;;;;;8.38;100.00;101215.78;5115212;28;20118;-83
2022/06/01 00:47:44;;;;;;;34.90;23.40;;;;;;;8.39;100.00;101208.53;5115094;28;20027;-83
2022/06/01 00:50:21;;;;;;;35.50;23.50;;;;;;;8.34;100.00;101208.25;5115503;28;20154;-83
2022/06/01 00:52:53;;;;;;;35.90;23.38;;;;;;;8.29;100.00;101219.66;5115708;28;20036;-83
2022/06/01 00:55:44;;;;;;;34.67;24.02;;;;;;;8.23;100.00;101215.84;5115409;28;20116;-83
2022/06/01 00:58:18;;;;;;;38.97;24.70;;;;;;;8.19;100.00;101217.28;5085911;28;20505;-84
2022/06/01 01:00:45;;;;;;;39.45;24.40;;;;;;;8.17;100.00;101213.09;5114968;28;20083;-83
2022/06/01 01:03:11;;;;;;;36.13;24.17;;;;;;;8.16;100.00;101222.22;5115642;28;20031;-83
2022/06/01 01:05:47;;;;;;;39.30;25.08;;;;;;;8.12;100.00;101212.81;5114830;28;20034;-83
2022/06/01 01:08:12;;;;;;;40.15;24.90;;;;;;;8.10;100.00;101213.00;5116697;28;20024;-83
2022/06/01 01:10:38;;;;;;;39.30;25.30;;;;;;;8.10;100.00;101222.97;5114398;28;20080;-83
2022/06/01 01:13:08;;;;;;;42.78;25.95;;;;;;;8.08;100.00;101210.47;5098034;28;20126;-83
2022/06/01 01:15:52;;;;;;;44.42;26.23;;;;;;;8.15;100.00;101218.69;5114682;28;20038;-83
2022/06/01 01:18:21;;;;;;;39.03;26.08;;;;;;;8.19;100.00;101211.88;5115404;28;20027;-83
2022/06/01 01:21:06;;;;;;;42.83;26.00;;;;;;;8.25;100.00;101204.84;5115893;28;20206;-83
2022/06/01 01:23:48;;;;;;;38.88;25.95;;;;;;;8.24;100.00;101203.19;5115077;28;20360;-83
2022/06/01 01:26:14;;;;;;;38.78;26.00;;;;;;;8.26;100.00;101201.94;5115519;28;20098;-83
2022/06/01 01:28:40;;;;;;;41.10;26.05;;;;;;;8.21;100.00;101201.69;5097465;28;20028;-83
2022/06/01 01:31:16;;;;;;;41.88;25.58;;;;;;;8.22;100.00;101206.09;5114306;28;20026;-83
2022/06/01 01:33:42;;;;;;;41.13;26.27;;;;;;;8.21;100.00;101207.09;5115559;28;20032;-83
2022/06/01 01:36:10;;;;;;;45.28;28.08;;;;;;;8.21;100.00;101199.00;5115287;28;20375;-83
2022/06/01 01:38:54;;;;;;;42.85;27.58;;;;;;;8.22;100.00;101207.94;5114018;28;20027;-83
2022/06/01 01:41:55;;;;;;;41.17;27.48;;;;;;;8.22;100.00;101197.13;5113818;28;20459;-83
2022/06/01 01:44:32;;;;;;;37.80;25.23;;;;;;;8.22;100.00;101205.22;4999503;28;20140;-83
2022/06/01 01:46:59;;;;;;;40.10;25.65;;;;;;;8.17;100.00;101197.69;5101866;28;20052;-83
2022/06/01 01:49:30;;;;;;;41.43;25.90;;;;;;;8.15;100.00;101201.59;5097788;28;20055;-83
2022/06/01 01:51:59;;;;;;;45.03;27.40;;;;;;;8.15;100.00;101213.28;5115814;28;20478;-83
2022/06/01 01:55:02;;;;;;;45.47;28.10;;;;;;;8.17;100.00;101207.69;5113894;28;20050;-83
2022/06/01 01:57:46;;;;;;;42.70;27.48;;;;;;;8.12;100.00;101210.97;5113790;28;20027;-83
2022/06/01 02:00:22;;;;;;;41.30;27.38;;;;;;;8.06;100.00;101212.56;5115429;28;20027;-83
2022/06/01 02:03:10;;;;;;;43.73;27.37;;;;;;;8.03;100.00;101221.03;5114520;28;20050;-83
2022/06/01 02:06:06;;;;;;;44.60;26.60;;;;;;;8.00;100.00;101217.84;5113653;28;20020;-83
2022/06/01 02:08:46;;;;;;;47.25;27.30;;;;;;;7.94;100.00;101214.03;5114975;28;20116;-83
2022/06/01 02:14:31;;;;;;;44.30;28.25;;;;;;;7.85;100.00;101216.03;5115421;28;20432;-83
2022/06/01 02:17:04;;;;;;;48.53;28.27;;;;;;;7.80;100.00;101207.66;5113803;28;20027;-83
2022/06/01 02:19:42;;;;;;;47.33;29.63;;;;;;;7.76;100.00;101208.22;5113608;28;20023;-83
2022/06/01 02:22:13;;;;;;;51.25;30.63;;;;;;;7.73;100.00;101210.25;5113600;28;20028;-83
2022/06/01 02:24:40;;;;;;;54.42;30.50;;;;;;;7.71;100.00;101211.50;5113665;28;20114;-83
2022/06/01 02:27:09;;;;;;;49.78;30.33;;;;;;;7.69;100.00;101214.38;5114342;28;20132;-83
2022/06/01 02:29:40;;;;;;;48.87;29.20;;;;;;;7.70;100.00;101217.91;5114634;28;20028;-83
2022/06/01 02:32:07;;;;;;;52.90;30.58;;;;;;;7.69;100.00;101213.53;5113281;28;20061;-83
2022/06/01 02:34:34;;;;;;;49.63;30.25;;;;;;;7.69;100.00;101216.22;5113736;28;20023;-83
2022/06/01 02:37:04;;;;;;;55.22;31.20;;;;;;;7.67;100.00;101215.59;5114513;28;20470;-83
2022/06/01 02:39:31;;;;;;;51.30;29.58;;;;;;;7.63;100.00;101208.88;5097102;28;20447;-84
2022/06/01 02:42:26;;;;;;;49.97;29.80;;;;;;;7.59;100.00;101215.66;5096287;28;20119;-84
2022/06/01 02:45:01;;;;;;;50.63;30.33;;;;;;;7.56;100.00;101214.19;5113431;28;20110;-84
2022/06/01 02:47:33;;;;;;;50.03;29.08;;;;;;;7.49;100.00;101208.69;5113318;28;20043;-84
2022/06/01 02:49:59;;;;;;;50.83;29.98;;;;;;;7.47;100.00;101204.50;5113075;28;20114;-83
2022/06/01 02:52:25;;;;;;;46.60;28.98;;;;;;;7.43;100.00;101208.63;5112302;28;20471;-84
2022/06/01 02:54:52;;;;;;;49.27;27.40;;;;;;;7.40;100.00;101209.81;5112952;28;20031;-84
2022/06/01 02:57:18;;;;;;;47.65;27.98;;;;;;;7.36;100.00;101209.34;5113694;28;20076;-83
2022/06/01 02:59:43;;;;;;;48.42;28.95;;;;;;;7.34;100.00;101210.56;5113979;28;20371;-83
2022/06/01 03:02:11;;;;;;;48.23;27.67;;;;;;;7.33;100.00;101214.28;5113000;28;20028;-83
2022/06/01 03:04:39;;;;;;;48.97;27.40;;;;;;;7.29;100.00;101213.81;5113160;28;20042;-83
2022/06/01 03:07:04;;;;;;;47.83;27.02;;;;;;;7.26;100.00;101214.16;5113624;28;20089;-83
2022/06/01 03:09:30;;;;;;;49.03;27.63;;;;;;;7.24;100.00;101218.09;5095899;28;20028;-83
2022/06/01 03:11:55;;;;;;;50.63;27.10;;;;;;;7.18;100.00;101211.56;5113037;28;20028;-83
2022/06/01 03:14:23;;;;;;;47.93;27.40;;;;;;;7.17;100.00;101213.41;5095869;28;20089;-83
2022/06/01 03:16:49;;;;;;;50.10;28.90;;;;;;;7.13;100.00;101216.66;5113739;28;20052;-83
2022/06/01 03:19:14;;;;;;;50.37;27.30;;;;;;;7.10;100.00;101209.78;5095390;28;20498;-83
2022/06/01 03:21:40;;;;;;;47.80;26.70;;;;;;;7.07;100.00;101215.56;5095713;28;20032;-83
2022/06/01 03:24:06;;;;;;;45.13;25.52;;;;;;;7.07;100.00;101220.94;5114500;28;20035;-83
2022/06/01 03:26:32;;;;;;;43.42;24.70;;;;;;;7.06;100.00;101215.72;5112931;28;20023;-84
2022/06/01 03:28:57;;;;;;;43.47;25.70;;;;;;;7.10;100.00;101217.88;5112599;28;20118;-83
2022/06/01 03:31:23;;;;;;;39.97;23.90;;;;;;;7.06;100.00;101211.16;5095948;28;20445;-83
2022/06/01 03:33:48;;;;;;;45.85;26.70;;;;;;;7.08;100.00;101211.81;5113160;28;20031;-83
2022/06/01 03:36:15;;;;;;;43.50;25.17;;;;;;;7.06;100.00;101223.81;5112893;28;20038;-83
2022/06/01 03:38:40;;;;;;;45.53;25.02;;;;;;;7.04;100.00;101210.50;5112575;28;20042;-83
2022/06/01 03:41:07;;;;;;;41.75;24.73;;;;;;;7.02;100.00;101220.66;5112138;28;20062;-84
2022/06/01 03:45:55;;;;;;;42.80;23.88;;;;;;;7.03;100.00;101214.25;5112430;28;20055;-83
2022/06/01 03:46:20;;;;;;;40.17;23.83;;;;;;;7.02;100.00;101215.25;5113803;28;20126;-83
2022/06/01 03:48:46;;;;;;;46.40;24.38;;;;;;;7.04;100.00;101213.19;5095458;28;20070;-83
2022/06/01 03:51:11;;;;;;;39.53;23.67;;;;;;;7.02;100.00;101215.25;5112487;28;20042;-83
2022/06/01 03:53:37;;;;;;;41.17;23.67;;;;;;;7.06;100.00;101221.09;5112374;28;20439;-84
2022/06/01 03:56:07;;;;;;;43.73;25.27;;;;;;;7.07;100.00;101217.41;5095721;28;20429;-83
2022/06/01 03:58:33;;;;;;;36.40;22.33;;;;;;;7.09;100.00;101221.59;5112367;28;20364;-84
2022/06/01 04:00:58;;;;;;;38.80;22.98;;;;;;;7.12;100.00;101221.22;5112600;28;20145;-83
2022/06/01 04:03:25;;;;;;;38.28;22.67;;;;;;;7.11;100.00;101224.94;5115543;28;20030;-83
2022/06/01 04:05:50;;;;;;;41.88;21.77;;;;;;;7.14;100.00;101226.44;5117298;27;20032;-84
2022/06/01 04:08:16;;;;;;;35.60;22.13;;;;;;;7.16;100.00;101224.38;5116222;28;20030;-83
2022/06/01 04:10:43;;;;;;;39.50;22.27;;;;;;;7.19;100.00;101224.03;5115962;28;20035;-83
2022/06/01 04:13:10;;;;;;;38.72;21.27;;;;;;;7.20;100.00;101223.84;5117195;27;20027;-83
2022/06/01 04:15:36;;;;;;;38.05;22.02;;;;;;;7.23;100.00;101217.22;5115796;28;20133;-83
2022/06/01 04:18:01;;;;;;;38.67;21.60;;;;;;;7.28;100.00;101228.34;5117005;28;20107;-84
2022/06/01 04:20:27;;;;;;;35.30;20.67;;;;;;;7.28;100.00;101225.63;5098764;28;20122;-84
2022/06/01 04:22:54;;;;;;;40.55;21.17;;;;;;;7.27;100.00;101229.34;5115588;28;20031;-83
2022/06/01 04:25:21;;;;;;;34.63;20.67;;;;;;;7.31;100.00;101229.84;5098765;28;20035;-83
2022/06/01 04:27:46;;;;;;;36.08;20.58;;;;;;;7.35;100.00;101228.41;5115582;28;20031;-83
2022/06/01 04:30:15;;;;;;;33.13;19.40;;;;;;;7.36;100.00;101230.94;5081648;28;20093;-83
2022/06/01 04:32:43;;;;;;;35.28;19.80;;;;;;;7.41;100.00;101235.78;5115419;28;20081;-83
2022/06/01 04:35:09;;;;;;;35.65;20.13;;;;;;;7.43;100.00;101231.03;5115131;28;20055;-83
2022/06/01 04:37:35;;;;;;;36.37;19.87;;;;;;;7.46;100.00;101236.06;5115342;28;20112;-83
2022/06/01 04:40:00;;;;;;;33.38;19.52;;;;;;;7.48;100.00;101225.06;5098044;28;20069;-83
2022/06/01 04:42:29;;;;;;;31.97;19.60;;;;;;;7.51;100.00;101230.97;5097919;28;20101;-84
2022/06/01 04:44:54;;;;;;;34.28;19.20;;;;;;;7.54;100.00;101230.59;5117026;28;20108;-83
2022/06/01 04:47:19;;;;;;;31.85;18.83;;;;;;;7.59;100.00;101243.53;5098465;28;20039;-83
2022/06/01 04:49:46;;;;;;;34.03;19.17;;;;;;;7.61;100.00;101246.03;5115035;28;20027;-83
2022/06/01 04:52:12;;;;;;;36.38;19.15;;;;;;;7.61;100.00;101238.78;5098803;28;20043;-83
2022/06/01 04:54:38;;;;;;;29.07;18.70;;;;;;;7.63;100.00;101247.53;5115331;28;20527;-83
2022/06/01 04:57:04;;;;;;;30.83;18.55;;;;;;;7.69;100.00;101245.94;5114658;28;20059;-83
2022/06/01 04:59:30;;;;;;;32.42;18.23;;;;;;;7.72;100.00;101245.56;5114949;28;20069;-83
2022/06/01 05:01:55;;;;;;;32.50;17.60;;;;;;;7.76;100.00;101254.13;5115051;28;20520;-83
2022/06/01 05:04:21;;;;;;;34.80;18.05;;;;;;;7.82;100.00;101259.63;5097806;28;20036;-84
2022/06/01 05:06:46;;;;;;;28.73;17.53;;;;;;;7.87;100.00;101250.97;5114852;28;20031;-83
2022/06/01 05:09:12;;;;;;;30.90;16.87;;;;;;;7.90;100.00;101247.91;5116409;28;20341;-83
2022/06/01 05:11:37;;;;;;;28.57;15.83;;;;;;;7.96;100.00;101243.56;5114614;28;20035;-83
2022/06/01 05:14:03;;;;;;;24.70;15.80;;;;;;;8.00;100.00;101245.75;5097084;28;20036;-84
2022/06/01 05:16:28;;;;;;;25.70;16.15;;;;;;;8.04;100.00;101238.91;5097943;28;20037;-83
2022/06/01 05:18:54;;;;;;;27.00;15.60;;;;;;;8.13;100.00;101238.81;5114999;28;20019;-84
2022/06/01 05:21:19;;;;;;;28.97;16.43;;;;;;;8.16;100.00;101241.97;5097488;28;20104;-83
2022/06/01 05:23:47;;;;;;;27.83;14.87;;;;;;;8.22;100.00;101243.06;5115452;28;20475;-83
2022/06/01 05:26:12;;;;;;;23.90;15.47;;;;;;;8.30;100.00;101234.00;5114441;28;20311;-83
2022/06/01 05:28:38;;;;;;;24.23;15.48;;;;;;;8.37;100.00;101237.63;5114886;28;20040;-84
2022/06/01 05:31:09;;;;;;;22.73;14.27;;;;;;;8.46;100.00;101250.06;5097091;28;20036;-84
2022/06/01 05:33:43;;;;;;;24.90;14.40;;;;;;;8.55;100.00;101237.25;5097607;28;20066;-87
2022/06/01 05:36:09;;;;;;;24.00;15.47;;;;;;;8.70;100.00;101238.00;5114724;28;20114;-89
2022/06/01 05:38:37;;;;;;;25.17;14.85;;;;;;;8.85;100.00;101242.50;5114301;28;20427;-88
2022/06/01 05:41:05;;;;;;;25.92;14.90;;;;;;;8.96;100.00;101244.69;5115854;28;20475;-88
2022/06/01 05:43:31;;;;;;;23.85;12.98;;;;;;;9.04;100.00;101243.72;5113974;28;20051;-89
2022/06/01 05:46:07;;;;;;;22.23;13.70;;;;;;;9.18;100.00;101241.94;5115229;28;20028;-87
2022/06/01 05:48:33;;;;;;;25.60;13.33;;;;;;;9.24;100.00;101246.56;5113902;28;20030;-86
2022/06/01 05:51:04;;;;;;;21.08;13.32;;;;;;;9.37;100.00;101251.25;5114428;28;20032;-88
2022/06/01 05:53:35;;;;;;;27.63;13.10;;;;;;;9.47;100.00;101243.63;5118951;28;20084;-89
2022/06/01 05:56:03;;;;;;;29.20;14.40;;;;;;;9.59;100.00;101247.44;5114615;28;20024;-88
2022/06/01 05:59:12;;;;;;;27.05;14.00;;;;;;;9.73;100.00;101252.94;5096726;28;20028;-91
2022/06/01 06:01:29;;;;;;;26.15;13.05;;;;;;;9.83;100.00;101250.69;5097109;28;20485;-87
2022/06/01 06:03:55;;;;;;;25.33;13.43;;;;;;;9.95;100.00;101253.66;5096548;28;20039;-87
2022/06/01 06:06:22;;;;;;;22.08;13.23;;;;;;;10.07;100.00;101253.94;5113300;28;20027;-87
2022/06/01 06:09:06;;;;;;;20.88;11.98;;;;;;;10.13;100.00;101253.16;5097050;28;20036;-87
2022/06/01 06:11:36;;;;;;;23.88;12.73;;;;;;;10.17;100.00;101247.09;5113281;28;20032;-88
2022/06/01 06:14:02;;;;;;;22.07;11.90;;;;;;;10.26;100.00;101249.63;5113771;28;20035;-88
2022/06/01 06:16:30;;;;;;;19.85;11.95;;;;;;;10.32;100.00;101254.25;5113094;28;20031;-87
2022/06/01 06:19:37;;;;;;;22.33;12.50;;;;;;;10.44;99.93;101251.81;5113218;28;20119;-88
2022/06/01 06:22:22;;;;;;;23.58;12.35;;;;;;;10.56;100.00;101258.31;5113392;28;20475;-87
2022/06/01 06:24:55;;;;;;;21.25;11.95;;;;;;;10.65;99.19;101267.09;5113938;28;20047;-89
2022/06/01 06:27:27;;;;;;;18.80;11.13;;;;;;;10.75;98.88;101272.97;5113237;28;20482;-88
2022/06/01 06:30:03;;;;;;;;;;;;;;;;;;;;;
2022/06/01 06:32:29;;;;;;;20.23;12.27;;;;;;;10.95;98.03;101274.84;5116111;28;20035;-88
2022/06/01 06:34:54;;;;;;;20.93;11.70;;;;;;;10.99;98.17;101281.56;5110328;28;20130;-87
2022/06/01 06:37:20;;;;;;;22.75;12.13;;;;;;;11.05;97.42;101280.72;5112816;28;20027;-87
2022/06/01 06:39:49;;;;;;;20.70;12.90;;;;;;;11.14;98.13;101289.50;5113062;28;20032;-87
2022/06/01 06:42:16;;;;;;;21.05;12.10;;;;;;;11.23;98.16;101296.38;5113761;28;20028;-87
2022/06/01 06:44:44;;;;;;;16.27;10.75;;;;;;;11.23;96.14;101294.53;5112819;28;20157;-87
2022/06/01 06:47:10;;;;;;;17.63;10.82;;;;;;;11.28;96.32;101293.91;5113780;28;20032;-87
2022/06/01 06:49:38;;;;;;;18.17;11.73;;;;;;;11.31;96.62;101298.91;5098025;28;20077;-86
2022/06/01 06:52:04;;;;;;;20.88;11.23;;;;;;;11.32;97.02;101302.44;5119151;28;20027;-83
2022/06/01 06:54:30;;;;;;;16.17;10.02;;;;;;;11.33;95.78;101298.69;5118985;28;20032;-89
2022/06/01 06:56:55;;;;;;;23.07;10.43;;;;;;;11.33;95.36;101295.97;5116351;28;20119;-84
2022/06/01 06:59:20;;;;;;;19.00;10.23;;;;;;;11.33;95.68;101302.25;5096126;28;20028;-84
2022/06/01 07:01:46;;;;;;;23.05;10.82;;;;;;;11.35;95.42;101310.19;5112790;28;20027;-84
2022/06/01 07:04:11;;;;;;;17.87;10.00;;;;;;;11.29;94.02;101309.13;5095897;28;20028;-84
2022/06/01 07:06:37;;;;;;;17.33;9.70;;;;;;;11.29;93.88;101314.56;5112718;28;20040;-84
2022/06/01 07:09:03;;;;;;;17.77;9.27;;;;;;;11.32;93.79;101313.31;5078638;28;20039;-84
2022/06/01 07:11:30;;;;;;;20.73;10.20;;;;;;;11.40;94.57;101313.94;5112453;28;20032;-84
2022/06/01 07:13:57;;;;;;;20.80;9.70;;;;;;;11.49;93.90;101316.47;5112896;28;20474;-84
2022/06/01 07:16:28;;;;;;;18.83;10.43;;;;;;;11.65;93.83;101309.72;5112635;28;20032;-84
2022/06/01 07:18:58;;;;;;;16.48;10.93;;;;;;;11.80;93.31;101313.06;5112618;28;20024;-84
2022/06/01 07:21:24;;;;;;;16.77;11.37;;;;;;;11.93;92.40;101309.53;5113392;28;20035;-84
2022/06/01 07:23:50;;;;;;;14.18;10.95;;;;;;;11.89;90.44;101309.06;5095877;28;20038;-84
2022/06/01 07:26:23;;;;;;;17.70;10.95;;;;;;;11.91;90.94;101314.28;5113324;28;20429;-85
2022/06/01 07:28:49;;;;;;;16.83;10.80;;;;;;;11.94;91.25;101319.34;5112901;28;20066;-85
2022/06/01 07:31:15;;;;;;;13.43;9.80;;;;;;;12.01;91.18;101309.28;5112527;28;20051;-84
2022/06/01 07:33:40;;;;;;;17.30;8.90;;;;;;;12.06;89.48;101324.94;5112374;28;20028;-84
2022/06/01 07:36:09;;;;;;;15.00;9.10;;;;;;;12.07;89.32;101318.47;5114011;28;20167;-84
2022/06/01 07:43:05;;;;;;;11.50;6.80;;;;;;;12.24;87.71;101327.81;5118320;28;20035;-84
2022/06/01 07:44:43;;;;;;;14.20;7.15;;;;;;;12.32;86.31;101321.31;5117386;28;20127;-84
2022/06/01 07:47:10;;;;;;;14.23;7.28;;;;;;;12.45;85.61;101313.09;5117681;28;20039;-84
2022/06/01 07:49:36;;;;;;;9.40;6.60;;;;;;;12.71;84.26;101310.44;5117117;28;20024;-84
2022/06/01 07:52:03;;;;;;;11.03;6.33;;;;;;;12.99;84.08;101310.03;5117539;28;20084;-84
2022/06/01 07:54:29;;;;;;;10.32;5.22;;;;;;;13.24;80.92;101311.97;5099601;28;20035;-84
2022/06/01 07:56:54;;;;;;;4.63;4.13;;;;;;;13.38;75.54;101319.00;5098793;28;20031;-84
2022/06/01 07:59:20;;;;;;;10.43;5.93;;;;;;;13.48;75.93;101308.44;5117398;28;20049;-84
2022/06/01 08:01:46;;;;;;;9.70;6.73;;;;;;;13.40;76.44;101311.44;5099031;28;20035;-84
2022/06/01 08:04:16;;;;;;;9.48;6.20;;;;;;;13.53;79.04;101310.50;5099043;28;20506;-84
2022/06/01 08:06:41;;;;;;;13.27;7.10;;;;;;;13.76;74.03;101323.50;5116284;28;20456;-84
2022/06/01 08:09:08;;;;;;;9.07;5.88;;;;;;;13.89;72.20;101313.50;5116833;28;20035;-84
2022/06/01 08:14:18;;;;;;;10.23;6.18;;;;;;;13.88;71.83;101314.56;5117596;28;20035;-84
2022/06/01 08:16:46;;;;;;;7.20;5.17;;;;;;;13.90;71.32;101320.63;5115707;28;20033;-84
2022/06/01 08:19:14;;;;;;;6.80;4.25;;;;;;;13.85;70.37;101322.13;5116650;28;20035;-84
2022/06/01 08:21:39;;;;;;;6.85;4.03;;;;;;;13.86;69.23;101331.16;5115442;28;20026;-84
2022/06/01 08:24:06;;;;;;;6.30;4.67;;;;;;;13.93;69.01;101320.19;5115546;28;20383;-83
2022/06/01 08:26:33;;;;;;;5.47;4.63;;;;;;;14.14;71.06;101316.16;5115544;28;20546;-84
2022/06/01 08:28:59;;;;;;;7.90;4.40;;;;;;;14.38;68.39;101315.25;5115203;28;20114;-84
2022/06/01 08:31:27;;;;;;;8.10;4.50;;;;;;;14.37;67.72;101312.75;5115229;28;20110;-84
2022/06/01 08:34:00;;;;;;;6.07;4.63;;;;;;;14.47;68.83;101309.47;5115696;28;20036;-84
2022/06/01 08:36:25;;;;;;;6.80;4.57;;;;;;;14.68;66.12;101302.69;5116336;28;20032;-84
2022/06/01 08:38:51;;;;;;;4.82;4.15;;;;;;;15.03;65.03;101307.44;5098048;28;20205;-84
2022/06/01 08:41:21;;;;;;;8.27;4.73;;;;;;;15.11;64.13;101304.38;5116266;28;20396;-85
2022/06/01 08:43:51;;;;;;;7.93;5.60;;;;;;;15.15;66.76;101302.00;5115388;28;20039;-84
2022/06/01 08:46:18;;;;;;;8.25;4.90;;;;;;;14.93;67.19;101302.53;5115474;28;20028;-85
2022/06/01 08:48:58;;;;;;;7.70;4.40;;;;;;;14.92;67.73;101300.88;5115423;28;20031;-85
2022/06/01 08:51:28;;;;;;;6.60;4.45;;;;;;;15.01;64.02;101302.19;5115713;28;20431;-84
2022/06/01 08:53:56;;;;;;;4.45;3.20;;;;;;;15.13;63.19;101296.75;5116542;28;20114;-85
2022/06/01 08:56:37;;;;;;;5.63;3.88;;;;;;;15.18;63.00;101296.88;5115319;28;20027;-85
2022/06/01 08:59:17;;;;;;;8.32;3.30;;;;;;;15.36;62.26;101297.88;5116605;28;20032;-84
2022/06/01 09:02:10;;;;;;;3.33;2.83;;;;;;;15.51;60.71;101308.34;5114686;28;20043;-84
2022/06/01 09:04:47;;;;;;;7.10;2.90;;;;;;;15.90;59.79;101315.03;5115557;28;20062;-84
2022/06/01 09:07:44;;;;;;;4.65;3.28;;;;;;;15.98;59.69;101318.47;5115282;28;20034;-84
2022/06/01 09:10:42;;;;;;;7.22;3.75;;;;;;;15.90;58.26;101303.22;5115009;28;20020;-83
2022/06/01 09:13:11;;;;;;;7.60;3.60;;;;;;;15.78;58.91;101319.66;5114121;28;20032;-84
2022/06/01 09:15:47;;;;;;;5.03;3.90;;;;;;;15.75;58.52;101304.53;5114695;28;20032;-83
2022/06/01 09:18:14;;;;;;;3.70;3.38;;;;;;;15.99;60.17;101303.69;5114498;28;20042;-84
2022/06/01 09:23:24;;;;;;;9.02;4.57;;;;;;;16.00;58.43;101297.97;5115552;28;20050;-84
2022/06/01 09:25:54;;;;;;;6.78;4.55;;;;;;;16.13;59.65;101303.19;5097526;28;20035;-84
2022/06/01 09:28:22;;;;;;;5.20;4.70;;;;;;;16.24;59.52;101304.25;5114330;28;20066;-84
2022/06/01 09:31:08;;;;;;;6.68;4.63;;;;;;;16.39;59.66;101311.94;5114843;28;20118;-83
2022/06/01 09:33:36;;;;;;;6.70;5.40;;;;;;;16.41;59.79;101317.16;5114122;28;20020;-84
2022/06/01 09:36:04;;;;;;;7.18;5.20;;;;;;;16.54;59.13;101322.38;5113586;28;20431;-85
2022/06/01 09:38:34;;;;;;;8.93;5.68;;;;;;;16.43;58.91;101329.56;5115593;28;20463;-86
2022/06/01 09:41:24;;;;;;;7.47;5.53;;;;;;;16.46;59.83;101328.22;5113675;28;20065;-85
2022/06/01 09:44:11;;;;;;;8.52;5.45;;;;;;;16.46;57.18;101320.00;5115809;28;20471;-85
2022/06/01 09:46:57;;;;;;;5.60;4.93;;;;;;;16.63;58.59;101317.31;5114295;28;20050;-84
2022/06/01 09:49:30;;;;;;;4.00;3.60;;;;;;;16.87;57.37;101314.47;5115208;28;20524;-85
2022/06/01 09:52:02;;;;;;;4.93;3.05;;;;;;;16.88;57.81;101306.03;5113798;28;20032;-85
2022/06/01 09:54:33;;;;;;;5.13;2.63;;;;;;;16.95;57.81;101325.91;5115178;28;20047;-84
2022/06/01 09:57:23;;;;;;;3.90;2.70;;;;;;;17.21;58.91;101325.53;5113828;28;20539;-85
2022/06/01 10:08:42;;;;;;;6.70;3.13;;;;;;;16.40;58.40;101354.69;5115409;28;20062;-84
2022/06/01 10:11:28;;;;;;;4.50;2.70;;;;;;;16.31;58.89;101370.66;5113547;28;20027;-85
2022/06/01 10:14:02;;;;;;;5.55;3.38;;;;;;;16.05;60.52;101366.53;5113890;28;20020;-85
2022/06/01 10:16:38;;;;;;;7.53;3.90;;;;;;;15.65;62.81;101385.50;5113781;28;20066;-84
2022/06/01 10:19:11;;;;;;;4.70;4.15;;;;;;;15.18;64.26;101384.34;5114890;28;20053;-85
2022/06/01 10:22:04;;;;;;;10.67;4.00;;;;;;;14.99;64.69;101390.94;5113385;28;20097;-85
2022/06/01 10:24:36;;;;;;;4.32;3.75;;;;;;;14.23;69.78;101384.91;5113313;28;20020;-85
2022/06/01 10:27:03;;;;;;;3.25;2.95;;;;;;;13.69;71.41;101385.44;5114411;28;20102;-85
2022/06/01 10:29:52;;;;;;;3.70;2.92;;;;;;;13.41;72.96;101378.53;5113538;28;20059;-84
2022/06/01 10:32:35;;;;;;;4.78;3.08;;;;;;;13.23;75.86;101378.41;5114071;28;20020;-83
2022/06/01 10:35:26;;;;;;;5.70;3.97;;;;;;;13.23;75.87;101379.25;5113657;28;20019;-82
2022/06/01 10:38:05;;;;;;;6.20;3.28;;;;;;;13.14;77.19;101375.16;5114213;28;20016;-84
2022/06/01 10:40:40;;;;;;;3.50;3.20;;;;;;;13.35;79.00;101384.88;5112985;28;20475;-84
2022/06/01 10:43:43;;;;;;;5.38;3.10;;;;;;;14.00;74.46;101376.31;5112951;28;20487;-83
2022/06/01 10:46:41;;;;;;;3.97;2.85;;;;;;;14.97;73.05;101371.19;5114583;28;20044;-83
2022/06/01 10:49:15;;;;;;;3.73;3.00;;;;;;;15.89;71.43;101368.06;5078597;28;20387;-84
2022/06/01 10:51:41;;;;;;;4.95;3.30;;;;;;;16.40;71.25;101378.47;5113018;28;20031;-83
2022/06/01 10:54:35;;;;;;;8.23;3.53;;;;;;;16.85;68.58;101377.75;5096123;28;20035;-83
2022/06/01 10:57:08;;;;;;;4.00;3.33;;;;;;;16.66;65.27;101377.94;5114555;28;20020;-83
2022/06/01 10:59:34;;;;;;;7.47;3.10;;;;;;;16.33;65.72;101383.25;5114339;28;20028;-83
2022/06/01 11:02:16;;;;;;;7.03;2.70;;;;;;;15.74;61.59;101386.84;5096578;28;20110;-83
2022/06/01 11:05:13;;;;;;;4.85;2.95;;;;;;;15.16;64.78;101386.50;5114309;28;20023;-83
2022/06/01 11:08:14;;;;;;;5.65;2.63;;;;;;;14.69;67.88;101372.63;5112946;28;20036;-84
2022/06/01 11:11:00;;;;;;;3.40;2.58;;;;;;;14.23;70.24;101382.19;5113308;28;20024;-84
2022/06/01 11:13:40;;;;;;;3.78;2.70;;;;;;;13.80;70.99;101379.25;5117532;28;20051;-83
2022/06/01 11:16:39;;;;;;;2.97;2.57;;;;;;;13.76;73.16;101377.19;5117259;28;20038;-83
2022/06/01 11:19:24;;;;;;;3.20;2.60;;;;;;;14.14;71.52;101362.53;5117212;28;20096;-84
2022/06/01 11:22:12;;;;;;;3.05;2.45;;;;;;;14.63;66.60;101371.66;5118083;28;20027;-84
2022/06/01 11:24:55;;;;;;;2.40;2.20;;;;;;;15.33;67.86;101364.78;5118087;28;20032;-84
2022/06/01 11:27:46;;;;;;;3.17;2.05;;;;;;;16.70;62.95;101374.69;5117226;28;20039;-83
2022/06/01 11:30:19;;;;;;;3.40;2.03;;;;;;;19.27;55.17;101373.84;5116693;28;20027;-83
2022/06/01 11:32:58;;;;;;;2.67;2.00;;;;;;;20.82;51.54;101370.13;5117915;28;20059;-84
2022/06/01 11:35:49;;;;;;;2.15;1.48;;;;;;;20.81;47.20;101376.75;5117541;28;20102;-83
2022/06/01 11:38:33;;;;;;;1.92;1.40;;;;;;;21.60;45.03;101381.28;5117578;28;20023;-84
2022/06/01 11:41:08;;;;;;;1.48;1.30;;;;;;;23.82;40.51;101381.88;5117440;27;20114;-84
2022/06/01 11:43:39;;;;;;;2.03;1.70;;;;;;;23.47;39.83;101390.22;5117184;28;20052;-84
2022/06/01 11:46:13;;;;;;;3.42;2.10;;;;;;;21.58;42.75;101381.53;5116288;28;20032;-84
2022/06/01 11:48:52;;;;;;;2.92;2.10;;;;;;;20.58;45.42;101394.56;5116227;28;20114;-84
2022/06/01 11:51:36;;;;;;;3.08;2.25;;;;;;;22.72;42.86;101380.19;5116558;28;20038;-84
2022/06/01 11:54:30;;;;;;;3.72;2.08;;;;;;;24.78;38.50;101388.56;5117567;28;20085;-84
2022/06/01 11:57:18;;;;;;;3.47;2.77;;;;;;;27.16;35.45;101375.56;5117649;28;20030;-84
2022/06/01 11:59:54;;;;;;;2.63;2.40;;;;;;;27.64;31.23;101376.91;5117439;28;20019;-84